createdAt,value
2023-03-10T00:02:05.871Z,95842.25
2023-03-10T00:04:32.348Z,95831.66
2023-03-10T00:06:58.855Z,95828.56
2023-03-10T00:09:25.716Z,95827.53
2023-03-10T00:11:52.171Z,95824.78
2023-03-10T00:14:18.997Z,95820.13
2023-03-10T00:16:45.472Z,95810.25
2023-03-10T00:19:11.930Z,95811.19
2023-03-10T00:21:38.381Z,95802.91
2023-03-10T00:24:04.953Z,95792.38
2023-03-10T00:26:31.786Z,95795.75
2023-03-10T00:28:58.258Z,95810.78
2023-03-10T00:31:27.685Z,95799.88
2023-03-10T00:33:55.744Z,95798.00
2023-03-10T00:36:23.630Z,95783.66
2023-03-10T00:38:50.479Z,95775.47
2023-03-10T00:41:19.157Z,95775.25
2023-03-10T00:43:45.740Z,95772.25
2023-03-10T00:46:12.560Z,95767.28
2023-03-10T00:48:39.076Z,95752.31
2023-03-10T00:51:05.876Z,95742.84
2023-03-10T00:53:33.450Z,95739.41
2023-03-10T00:56:10.398Z,95742.44
2023-03-10T00:58:36.979Z,95730.44
2023-03-10T01:01:04.620Z,95733.19
2023-03-10T01:03:31.135Z,95731.16
2023-03-10T01:05:57.698Z,95724.97
2023-03-10T01:08:24.191Z,95722.28
2023-03-10T01:10:50.752Z,95715.75
2023-03-10T01:13:17.301Z,95704.91
2023-03-10T01:15:44.631Z,95706.50
2023-03-10T01:18:11.131Z,95702.44
2023-03-10T01:20:37.584Z,95684.09
2023-03-10T01:23:04.048Z,95673.13
2023-03-10T01:25:30.547Z,95681.44
2023-03-10T01:27:57.001Z,95657.56
2023-03-10T01:30:23.810Z,95657.72
2023-03-10T01:32:50.318Z,95643.94
2023-03-10T01:35:16.852Z,95632.53
2023-03-10T01:37:44.538Z,95623.13
2023-03-10T01:40:16.555Z,95616.31
2023-03-10T01:42:43.492Z,95616.41
2023-03-10T01:45:13.816Z,95614.03
2023-03-10T01:47:40.493Z,95605.84
2023-03-10T01:50:08.308Z,95591.56
2023-03-10T01:52:34.775Z,95587.34
2023-03-10T01:55:06.896Z,95579.44
2023-03-10T01:57:36.428Z,95573.94
2023-03-10T02:00:04.296Z,95570.91
2023-03-10T02:02:31.443Z,95566.44
2023-03-10T02:04:57.917Z,95558.22
2023-03-10T02:07:26.651Z,95553.72
2023-03-10T02:09:53.122Z,95554.00
2023-03-10T02:12:19.655Z,95548.34
2023-03-10T02:14:46.113Z,95550.25
2023-03-10T02:17:17.063Z,95546.50
2023-03-10T02:20:04.227Z,95557.50
2023-03-10T02:22:31.275Z,95550.41
2023-03-10T02:25:39.061Z,95527.72
2023-03-10T02:28:05.569Z,95522.56
2023-03-10T02:30:43.314Z,95522.59
2023-03-10T02:33:12.015Z,95518.66
2023-03-10T02:35:38.729Z,95518.28
2023-03-10T02:38:05.437Z,95507.28
2023-03-10T02:40:51.782Z,95497.00
2023-03-10T02:43:21.136Z,95494.25
2023-03-10T02:45:48.282Z,95492.31
2023-03-10T02:48:28.290Z,95492.31
2023-03-10T02:50:55.174Z,95486.38
2023-03-10T02:53:23.221Z,95472.19
2023-03-10T02:55:49.684Z,95478.91
2023-03-10T02:58:16.222Z,95472.63
2023-03-10T03:00:43.935Z,95465.94
2023-03-10T03:03:10.486Z,95449.81
2023-03-10T03:05:37.145Z,95462.38
2023-03-10T03:08:04.352Z,95461.19
2023-03-10T03:10:30.816Z,95454.13
2023-03-10T03:12:57.425Z,95475.72
2023-03-10T03:15:24.228Z,95473.84
2023-03-10T03:17:50.737Z,95469.91
2023-03-10T03:20:17.586Z,95472.66
2023-03-10T03:22:44.885Z,95469.53
2023-03-10T03:25:12.807Z,95476.97
2023-03-10T03:27:39.359Z,95462.81
2023-03-10T03:30:11.346Z,95469.50
2023-03-10T03:32:38.254Z,95467.16
2023-03-10T03:35:05.585Z,95467.56
2023-03-10T03:37:32.074Z,95474.25
2023-03-10T03:39:58.601Z,95483.66
2023-03-10T03:42:25.113Z,95482.09
2023-03-10T03:44:51.588Z,95482.84
2023-03-10T03:47:18.099Z,95482.88
2023-03-10T03:49:44.583Z,95479.75
2023-03-10T03:52:11.070Z,95482.47
2023-03-10T03:54:37.558Z,95486.81
2023-03-10T03:57:04.043Z,95492.69
2023-03-10T03:59:30.683Z,95491.81
2023-03-10T04:01:59.994Z,95500.94
2023-03-10T04:04:26.515Z,95493.88
2023-03-10T04:06:52.977Z,95499.28
2023-03-10T04:09:19.497Z,95499.69
2023-03-10T04:11:45.952Z,95508.44
2023-03-10T04:14:12.429Z,95494.69
2023-03-10T04:16:38.889Z,95509.16
2023-03-10T04:19:07.639Z,95509.13
2023-03-10T04:21:35.297Z,95505.91
2023-03-10T04:24:01.816Z,95517.25
2023-03-10T04:26:28.463Z,95517.31
2023-03-10T04:28:54.945Z,95519.84
2023-03-10T04:31:21.528Z,95523.41
2023-03-10T04:33:48.085Z,95523.38
2023-03-10T04:36:14.622Z,95519.06
2023-03-10T04:38:41.152Z,95526.16
2023-03-10T04:41:09.396Z,95537.97
2023-03-10T04:43:35.987Z,95540.69
2023-03-10T04:46:02.557Z,95533.59
2023-03-10T04:48:29.177Z,95533.09
2023-03-10T04:51:00.245Z,95526.91
2023-03-10T04:53:26.794Z,95526.47
2023-03-10T04:55:53.318Z,95527.69
2023-03-10T04:58:20.688Z,95530.69
2023-03-10T05:01:01.875Z,95534.00
2023-03-10T05:03:29.533Z,95518.63
2023-03-10T05:05:56.075Z,95529.00
2023-03-10T05:08:22.593Z,95524.69
2023-03-10T05:10:49.074Z,95521.97
2023-03-10T05:13:15.634Z,95523.91
2023-03-10T05:15:42.152Z,95508.00
2023-03-10T05:18:09.049Z,95518.56
2023-03-10T05:20:35.763Z,95522.75
2023-03-10T05:23:02.500Z,95526.59
2023-03-10T05:25:28.979Z,95517.84
2023-03-10T05:27:55.452Z,95524.94
2023-03-10T05:30:21.980Z,95520.59
2023-03-10T05:32:48.477Z,95528.16
2023-03-10T05:35:15.035Z,95522.56
2023-03-10T05:37:42.562Z,95523.84
2023-03-10T05:40:20.903Z,95524.91
2023-03-10T05:42:47.886Z,95524.34
2023-03-10T05:45:14.560Z,95517.00
2023-03-10T05:47:41.620Z,95524.84
2023-03-10T05:50:09.115Z,95524.19
2023-03-10T05:52:39.287Z,95531.69
2023-03-10T05:55:06.332Z,95530.13
2023-03-10T05:57:32.861Z,95529.63
2023-03-10T05:59:59.332Z,95532.78
2023-03-10T06:02:26.148Z,95535.72
2023-03-10T06:04:52.640Z,95527.94
2023-03-10T06:07:19.110Z,95535.91
2023-03-10T06:09:45.919Z,95526.53
2023-03-10T06:12:12.393Z,95536.97
2023-03-10T06:14:38.879Z,95536.13
2023-03-10T06:17:05.359Z,95536.88
2023-03-10T06:19:31.839Z,95541.88
2023-03-10T06:21:58.354Z,95539.88
2023-03-10T06:24:24.927Z,95538.16
2023-03-10T06:26:51.410Z,95536.72
2023-03-10T06:29:17.893Z,95531.63
2023-03-10T06:31:44.743Z,95536.03
2023-03-10T06:34:11.454Z,95540.25
2023-03-10T06:36:40.248Z,95528.81
2023-03-10T06:39:07.296Z,95532.44
2023-03-10T06:41:35.545Z,95540.47
2023-03-10T06:44:02.440Z,95541.13
2023-03-10T06:46:29.012Z,95534.09
2023-03-10T06:48:55.588Z,95539.13
2023-03-10T06:51:22.341Z,95538.69
2023-03-10T06:53:51.846Z,95543.06
2023-03-10T06:56:20.234Z,95538.31
2023-03-10T06:58:46.781Z,95548.44
2023-03-10T07:01:21.568Z,95539.84
2023-03-10T07:03:48.323Z,95547.59
2023-03-10T07:06:14.801Z,95547.03
2023-03-10T07:08:41.325Z,95547.84
2023-03-10T07:11:07.829Z,95549.56
2023-03-10T07:13:34.367Z,95557.38
2023-03-10T07:16:00.851Z,95551.19
2023-03-10T07:18:29.499Z,95562.94
2023-03-10T07:20:56.112Z,95558.53
2023-03-10T07:23:23.757Z,95556.06
2023-03-10T07:25:54.456Z,95557.03
2023-03-10T07:28:20.948Z,95570.78
2023-03-10T07:30:47.425Z,95564.75
2023-03-10T07:33:13.900Z,95572.66
2023-03-10T07:35:40.422Z,95576.47
2023-03-10T07:38:07.048Z,95587.97
2023-03-10T07:40:33.798Z,95591.34
2023-03-10T07:43:00.281Z,95595.38
2023-03-10T07:45:27.148Z,95588.84
2023-03-10T07:47:53.958Z,95593.06
2023-03-10T07:50:21.049Z,95595.66
2023-03-10T07:52:47.724Z,95603.16
2023-03-10T07:55:14.476Z,95608.28
2023-03-10T07:57:40.932Z,95612.94
2023-03-10T08:00:08.045Z,95617.94
2023-03-10T08:02:34.516Z,95610.72
2023-03-10T08:05:01.469Z,95607.34
2023-03-10T08:07:28.039Z,95609.56
2023-03-10T08:09:54.646Z,95620.72
2023-03-10T08:12:21.203Z,95612.25
2023-03-10T08:14:48.070Z,95620.06
2023-03-10T08:17:14.577Z,95621.69
2023-03-10T08:19:41.098Z,95619.22
2023-03-10T08:22:07.629Z,95623.19
2023-03-10T08:24:34.084Z,95629.41
2023-03-10T08:27:00.679Z,95621.47
2023-03-10T08:29:27.138Z,95632.53
2023-03-10T08:31:53.670Z,95627.84
2023-03-10T08:34:20.148Z,95628.19
2023-03-10T08:36:46.619Z,95622.44
2023-03-10T08:39:13.120Z,95628.16
2023-03-10T08:41:49.024Z,95631.69
2023-03-10T08:44:17.792Z,95627.84
2023-03-10T08:46:46.781Z,95629.78
2023-03-10T08:49:14.558Z,95635.59
2023-03-10T08:51:41.133Z,95632.47
2023-03-10T08:54:07.708Z,95635.19
2023-03-10T08:56:34.199Z,95623.50
2023-03-10T08:59:00.880Z,95625.59
2023-03-10T09:01:29.251Z,95625.75
2023-03-10T09:03:56.181Z,95625.72
2023-03-10T09:06:22.643Z,95621.44
2023-03-10T09:08:50.644Z,95624.13
2023-03-10T09:11:22.429Z,95622.66
2023-03-10T09:13:48.926Z,95620.38
2023-03-10T09:16:15.915Z,95620.34
2023-03-10T09:18:42.520Z,95626.22
2023-03-10T09:21:09.370Z,95626.22
2023-03-10T09:23:35.860Z,95634.47
2023-03-10T09:26:02.340Z,95638.09
2023-03-10T09:28:28.847Z,95636.84
2023-03-10T09:30:55.386Z,95639.81
2023-03-10T09:33:22.069Z,95639.91
2023-03-10T09:36:05.045Z,95641.38
2023-03-10T09:38:31.998Z,95641.13
2023-03-10T09:41:09.345Z,95640.88
2023-03-10T09:43:40.151Z,95645.63
2023-03-10T09:46:07.706Z,95637.13
2023-03-10T09:48:56.630Z,95643.44
2023-03-10T09:51:25.140Z,95645.03
2023-03-10T09:54:12.858Z,95643.50
2023-03-10T09:56:39.343Z,95634.44
2023-03-10T09:59:12.914Z,95631.25
2023-03-10T10:01:41.326Z,95649.41
2023-03-10T10:04:19.680Z,95652.94
2023-03-10T10:06:47.031Z,95648.59
2023-03-10T10:09:32.917Z,95647.41
2023-03-10T10:12:17.343Z,95650.50
2023-03-10T10:14:56.740Z,95654.03
2023-03-10T10:18:12.182Z,95646.13
2023-03-10T10:21:00.205Z,95653.63
2023-03-10T10:23:40.779Z,95648.94
2023-03-10T10:26:26.408Z,95649.75
2023-03-10T10:29:17.453Z,95649.41
2023-03-10T10:31:45.720Z,95650.56
2023-03-10T10:34:20.708Z,95653.72
2023-03-10T10:36:57.079Z,95657.66
2023-03-10T10:39:32.895Z,95648.97
2023-03-10T10:42:19.396Z,95656.84
2023-03-10T10:44:46.188Z,95656.47
2023-03-10T10:47:25.638Z,95658.47
2023-03-10T10:49:52.569Z,95658.09
2023-03-10T10:52:24.847Z,95662.78
2023-03-10T10:54:58.596Z,95671.47
2023-03-10T10:57:30.136Z,95656.09
2023-03-10T11:00:14.406Z,95665.16
2023-03-10T11:02:40.933Z,95665.47
2023-03-10T11:05:19.014Z,95669.34
2023-03-10T11:07:46.020Z,95675.19
2023-03-10T11:10:14.667Z,95669.69
2023-03-10T11:13:06.649Z,95668.44
2023-03-10T11:15:35.653Z,95670.47
2023-03-10T11:18:09.523Z,95669.59
2023-03-10T11:20:52.201Z,95662.56
2023-03-10T11:23:29.933Z,95665.56
2023-03-10T11:26:10.603Z,95668.69
2023-03-10T11:29:14.679Z,95669.19
2023-03-10T11:31:56.066Z,95659.66
2023-03-10T11:34:30.864Z,95658.44
2023-03-10T11:37:51.900Z,95655.28
2023-03-10T11:40:43.124Z,95655.00
2023-03-10T11:43:31.782Z,95638.69
2023-03-10T11:46:04.194Z,95630.06
2023-03-10T11:48:37.111Z,95635.59
2023-03-10T11:51:04.538Z,95635.88
2023-03-10T11:53:41.083Z,95630.38
2023-03-10T11:56:09.121Z,95624.78
2023-03-10T11:58:47.363Z,95633.66
2023-03-10T12:01:15.887Z,95637.81
2023-03-10T12:03:53.550Z,95637.19
2023-03-10T12:06:25.509Z,95642.31
2023-03-10T12:08:53.755Z,95637.97
2023-03-10T12:11:22.745Z,95632.22
2023-03-10T12:13:51.246Z,95627.56
2023-03-10T12:16:20.676Z,95625.31
2023-03-10T12:18:47.195Z,95625.00
2023-03-10T12:21:18.798Z,95620.25
2023-03-10T12:23:52.793Z,95618.59
2023-03-10T12:26:45.467Z,95620.81
2023-03-10T12:29:20.676Z,95614.81
2023-03-10T12:31:51.471Z,95610.91
2023-03-10T12:34:22.453Z,95605.59
2023-03-10T12:37:04.692Z,95603.34
2023-03-10T12:39:32.648Z,95595.56
2023-03-10T12:42:00.791Z,95590.50
2023-03-10T12:44:55.259Z,95581.03
2023-03-10T12:47:28.739Z,95577.03
2023-03-10T12:50:01.841Z,95577.84
2023-03-10T12:52:44.653Z,95582.53
2023-03-10T12:55:24.427Z,95576.94
2023-03-10T12:57:54.142Z,95580.56
2023-03-10T13:00:31.717Z,95572.31
2023-03-10T13:03:06.976Z,95560.47
2023-03-10T13:05:35.289Z,95560.44
2023-03-10T13:08:17.723Z,95543.06
2023-03-10T13:10:44.220Z,95542.59
2023-03-10T13:13:15.689Z,95544.44
2023-03-10T13:15:42.159Z,95530.16
2023-03-10T13:18:19.846Z,95524.19
2023-03-10T13:20:47.080Z,95524.47
2023-03-10T13:23:22.588Z,95524.81
2023-03-10T13:25:59.083Z,95521.97
2023-03-10T13:28:26.712Z,95519.72
2023-03-10T13:31:08.614Z,95514.88
2023-03-10T13:33:42.954Z,95503.53
2023-03-10T13:36:21.416Z,95497.75
2023-03-10T13:38:47.928Z,95496.84
2023-03-10T13:41:14.413Z,95483.31
2023-03-10T13:43:42.210Z,95483.50
2023-03-10T13:46:14.805Z,95481.56
2023-03-10T13:48:41.276Z,95474.63
2023-03-10T13:51:18.202Z,95446.94
2023-03-10T13:53:46.007Z,95446.00
2023-03-10T13:56:20.617Z,95429.84
2023-03-10T13:58:47.733Z,95415.69
2023-03-10T14:01:18.504Z,95407.59
2023-03-10T14:03:54.318Z,95409.81
2023-03-10T14:06:20.837Z,95416.06
2023-03-10T14:08:47.316Z,95424.69
2023-03-10T14:11:24.119Z,95427.13
2023-03-10T14:13:51.555Z,95426.31
2023-03-10T14:16:18.140Z,95428.22
2023-03-10T14:18:44.609Z,95431.03
2023-03-10T14:22:01.054Z,95432.56
2023-03-10T14:24:28.247Z,95443.31
2023-03-10T14:26:55.518Z,95452.06
2023-03-10T14:29:21.969Z,95458.38
2023-03-10T14:31:51.687Z,95468.66
2023-03-10T14:34:18.191Z,95472.72
2023-03-10T14:36:44.854Z,95461.16
2023-03-10T14:39:11.663Z,95467.06
2023-03-10T14:41:38.125Z,95470.88
2023-03-10T14:44:04.585Z,95472.47
2023-03-10T14:46:34.953Z,95473.25
2023-03-10T14:49:01.839Z,95474.84
2023-03-10T14:51:35.590Z,95474.50
2023-03-10T14:54:03.073Z,95480.81
2023-03-10T14:56:29.671Z,95481.19
2023-03-10T14:58:58.228Z,95487.50
2023-03-10T15:01:24.700Z,95482.78
2023-03-10T15:03:51.430Z,95470.19
2023-03-10T15:06:18.734Z,95470.19
2023-03-10T15:08:45.264Z,95459.16
2023-03-10T15:11:11.862Z,95461.13
2023-03-10T15:13:38.333Z,95453.69
2023-03-10T15:16:05.562Z,95452.06
2023-03-10T15:18:32.141Z,95457.19
2023-03-10T15:21:00.284Z,95460.72
2023-03-10T15:23:27.368Z,95460.72
2023-03-10T15:25:54.753Z,95469.44
2023-03-10T15:28:21.760Z,95461.56
2023-03-10T15:30:48.453Z,95461.59
2023-03-10T15:33:28.968Z,95458.84
2023-03-10T15:36:04.512Z,95460.06
2023-03-10T15:38:46.257Z,95459.66
2023-03-10T15:41:45.949Z,95447.50
2023-03-10T15:46:57.631Z,95461.66
2023-03-10T15:49:27.594Z,95475.44
2023-03-10T15:51:54.117Z,95543.75
2023-03-10T15:54:20.601Z,95544.97
2023-03-10T15:56:47.071Z,95520.59
2023-03-10T15:59:13.883Z,95505.63
2023-03-10T16:01:40.430Z,95500.88
2023-03-10T16:04:06.964Z,95487.53
2023-03-10T16:06:33.749Z,95474.13
2023-03-10T16:09:00.502Z,95462.28
2023-03-10T16:11:27.047Z,95453.63
2023-03-10T16:13:53.937Z,95448.94
2023-03-10T16:16:23.053Z,95441.47
2023-03-10T16:18:49.692Z,95437.94
2023-03-10T16:21:19.454Z,95438.28
2023-03-10T16:23:46.004Z,95442.66
2023-03-10T16:26:22.017Z,95440.31
2023-03-10T16:28:50.603Z,95434.38
2023-03-10T16:31:17.415Z,95432.84
2023-03-10T16:33:45.967Z,95434.41
2023-03-10T16:36:17.448Z,95433.97
2023-03-10T16:38:43.974Z,95435.59
2023-03-10T16:41:10.662Z,95429.28
2023-03-10T16:43:37.367Z,95433.63
2023-03-10T16:46:11.963Z,95432.38
2023-03-10T16:48:47.098Z,95433.94
2023-03-10T16:51:27.913Z,95425.25
2023-03-10T16:54:05.073Z,95425.59
2023-03-10T16:56:32.005Z,95429.09
2023-03-10T16:58:58.725Z,95432.19
2023-03-10T17:01:25.495Z,95442.44
2023-03-10T17:04:20.962Z,95433.38
2023-03-10T17:06:47.598Z,95442.84
2023-03-10T17:09:14.257Z,95439.72
2023-03-10T17:11:45.356Z,95451.56
2023-03-10T17:14:14.181Z,95435.38
2023-03-10T17:19:30.069Z,95435.78
2023-03-10T17:21:56.987Z,95436.97
2023-03-10T17:24:23.597Z,95434.50
2023-03-10T17:26:50.212Z,95435.31
2023-03-10T17:29:16.919Z,95442.41
2023-03-10T17:31:44.059Z,95449.13
2023-03-10T17:34:16.455Z,95445.53
2023-03-10T17:36:56.425Z,95449.03
2023-03-10T17:39:23.015Z,95461.63
2023-03-10T17:41:49.665Z,95476.16
2023-03-10T17:44:39.662Z,95475.81
2023-03-10T17:47:06.196Z,95462.84
2023-03-10T17:49:33.702Z,95455.41
2023-03-10T17:52:00.310Z,95460.94
2023-03-10T17:54:27.117Z,95459.38
2023-03-10T17:56:56.050Z,95467.63
2023-03-10T17:59:22.663Z,95461.78
2023-03-10T18:01:56.642Z,95466.91
2023-03-10T18:04:33.652Z,95472.81
2023-03-10T18:09:40.803Z,95457.44
2023-03-10T18:12:09.085Z,95453.91
2023-03-10T18:14:35.692Z,95444.97
2023-03-10T18:17:03.134Z,95433.19
2023-03-10T18:19:35.449Z,95448.94
2023-03-10T18:22:05.544Z,95438.75
2023-03-10T18:24:32.108Z,95448.94
2023-03-10T18:26:58.800Z,95437.56
2023-03-10T18:29:25.323Z,95440.34
2023-03-10T18:32:15.087Z,95443.44
2023-03-10T18:34:41.633Z,95437.19
2023-03-10T18:37:10.651Z,95433.22
2023-03-10T18:39:40.862Z,95432.44
2023-03-10T18:42:07.721Z,95432.47
2023-03-10T18:44:46.079Z,95432.84
2023-03-10T18:47:24.803Z,95436.34
2023-03-10T18:49:51.413Z,95438.72
2023-03-10T18:52:17.990Z,95435.22
2023-03-10T18:54:45.074Z,95438.38
2023-03-10T18:57:11.780Z,95452.13
2023-03-10T18:59:51.337Z,95468.28
2023-03-10T19:02:19.494Z,95467.78
2023-03-10T19:04:56.743Z,95489.53
2023-03-10T19:07:23.267Z,95491.31
2023-03-10T19:09:53.809Z,95512.44
2023-03-10T19:12:20.365Z,95513.34
2023-03-10T19:14:47.548Z,95533.84
2023-03-10T19:17:19.913Z,95555.06
2023-03-10T19:19:46.428Z,95569.78
2023-03-10T19:22:13.445Z,95593.91
2023-03-10T19:24:39.995Z,95600.84
2023-03-10T19:27:06.601Z,95628.31
2023-03-10T19:29:40.013Z,95641.72
2023-03-10T19:32:07.933Z,95664.13
2023-03-10T19:34:34.840Z,95675.06
2023-03-10T19:37:01.366Z,95700.50
2023-03-10T19:39:39.025Z,95725.63
2023-03-10T19:42:05.624Z,95747.00
2023-03-10T19:44:32.135Z,95763.88
2023-03-10T19:46:58.794Z,95765.84
2023-03-10T19:49:25.321Z,95781.41
2023-03-10T19:51:51.922Z,95806.75
2023-03-10T19:54:18.462Z,95812.69
2023-03-10T19:56:45.220Z,95808.47
2023-03-10T19:59:14.945Z,95837.78
2023-03-10T20:01:43.853Z,95847.22
2023-03-10T20:04:10.501Z,95865.50
2023-03-10T20:06:37.107Z,95869.72
2023-03-10T20:09:04.658Z,95899.47
2023-03-10T20:11:31.466Z,95906.97
2023-03-10T20:13:58.048Z,95909.47
2023-03-10T20:16:27.477Z,95937.06
2023-03-10T20:18:56.127Z,95945.34
2023-03-10T20:21:22.607Z,95974.22
2023-03-10T20:23:49.161Z,95982.94
2023-03-10T20:26:16.039Z,96003.28
2023-03-10T20:28:42.506Z,96003.28
2023-03-10T20:31:09.235Z,96021.00
2023-03-10T20:33:35.931Z,96043.72
2023-03-10T20:36:02.472Z,96055.66
2023-03-10T20:38:28.966Z,96061.91
2023-03-10T20:40:55.444Z,96072.34
2023-03-10T20:43:22.051Z,96078.59
2023-03-10T20:45:51.066Z,96102.22
2023-03-10T20:48:17.526Z,96116.06
2023-03-10T20:50:44.014Z,96112.31
2023-03-10T20:53:10.594Z,96137.75
2023-03-10T20:55:37.659Z,96119.22
2023-03-10T20:58:04.258Z,96161.56
2023-03-10T21:00:30.823Z,96171.78
2023-03-10T21:02:57.570Z,96170.41
2023-03-10T21:05:25.178Z,96176.19
2023-03-10T21:07:51.676Z,96191.88
2023-03-10T21:10:18.173Z,96215.47
2023-03-10T21:12:44.654Z,96214.22
2023-03-10T21:15:12.069Z,96230.81
2023-03-10T21:17:38.585Z,96246.72
2023-03-10T21:20:08.429Z,96250.56
2023-03-10T21:22:35.396Z,96249.91
2023-03-10T21:25:03.372Z,96272.38
2023-03-10T21:27:30.849Z,96287.59
2023-03-10T21:29:58.855Z,96295.75
2023-03-10T21:32:26.890Z,96296.22
2023-03-10T21:34:53.558Z,96314.50
2023-03-10T21:37:20.602Z,96323.97
2023-03-10T21:39:48.152Z,96332.66
2023-03-10T21:42:14.880Z,96340.03
2023-03-10T21:44:41.433Z,96338.31
2023-03-10T21:47:07.900Z,96355.78
2023-03-10T21:49:34.419Z,96362.69
2023-03-10T21:52:00.888Z,96375.84
2023-03-10T21:54:27.412Z,96386.09
2023-03-10T21:56:54.597Z,96392.97
2023-03-10T21:59:21.106Z,96400.75
2023-03-10T22:01:47.935Z,96412.94
2023-03-10T22:04:14.489Z,96424.91
2023-03-10T22:06:41.224Z,96423.81
2023-03-10T22:09:07.707Z,96430.34
2023-03-10T22:11:34.217Z,96433.06
2023-03-10T22:14:00.722Z,96427.13
2023-03-10T22:16:27.229Z,96436.84
2023-03-10T22:18:53.789Z,96446.63
2023-03-10T22:21:20.318Z,96448.41
2023-03-10T22:23:46.788Z,96452.22
2023-03-10T22:26:13.687Z,96455.41
2023-03-10T22:28:40.193Z,96448.13
2023-03-10T22:31:07.733Z,96458.28
2023-03-10T22:33:34.276Z,96444.19
2023-03-10T22:36:05.187Z,96473.13
2023-03-10T22:38:31.739Z,96481.16
2023-03-10T22:40:58.316Z,96487.91
2023-03-10T22:43:25.411Z,96499.22
2023-03-10T22:45:51.932Z,96509.69
2023-03-10T22:48:18.635Z,96515.94
2023-03-10T22:50:46.629Z,96519.41
2023-03-10T22:53:15.636Z,96525.53
2023-03-10T22:55:43.534Z,96525.09
2023-03-10T22:58:10.944Z,96532.81
2023-03-10T23:00:37.850Z,96537.84
2023-03-10T23:03:05.002Z,96547.88
2023-03-10T23:05:31.858Z,96557.78
2023-03-10T23:07:58.395Z,96559.22
2023-03-10T23:10:29.805Z,96558.81
2023-03-10T23:12:58.145Z,96554.94
2023-03-10T23:15:26.520Z,96567.47
2023-03-10T23:17:53.840Z,96571.78
2023-03-10T23:20:20.719Z,96583.69
2023-03-10T23:22:47.200Z,96597.59
2023-03-10T23:25:24.140Z,96602.72
2023-03-10T23:27:50.602Z,96610.91
2023-03-10T23:30:17.234Z,96613.00
2023-03-10T23:32:44.463Z,96617.50
2023-03-10T23:35:19.194Z,96622.16
2023-03-10T23:37:46.191Z,96628.41
2023-03-10T23:40:14.627Z,96629.19
2023-03-10T23:42:41.842Z,96632.72
2023-03-10T23:45:10.479Z,96641.38
2023-03-10T23:47:36.998Z,96649.09
2023-03-10T23:50:04.213Z,96649.91
2023-03-10T23:52:30.730Z,96649.72
2023-03-10T23:54:57.190Z,96657.25
2023-03-10T23:57:23.644Z,96665.44
2023-03-10T23:59:50.170Z,96668.22
